Timeline UpdatesTrip UpdatesNews PostsPvt Posts♥♥Travel TipsAdmin PostsConv PostsFollowed PostsChat RequestsBlog PostsPNR Posts

Disclaimer
Search
 
 
Tue Nov 25, 2014 06:08:46 ISTHomeTrainsΣChainsAtlasPNRForumGalleryNewsFAQTripsMembersLoginFeedback
No Recent News for this Train
Other Trains in the News **new
Latest...
1. This train will be diverted from its existing route via Tundla-Agra Fort-Mathura Jn.-Palwal-New Delhi to Tundla-Chipyana Buzurg-New Delhi and will not stop at Agra Fort, Idgah Agra Jn., Agra Cantt, Raja Ki Mandi, Mathura Jn, Chata, Koshikalan, Palwal, Ballabgarh, Faridabad & Tughlakabad from 10-11-2014 to 09-12-2014 for remodelling of Agra Yard 2. Cancelled between Sriganganagar-Mughalsarai for train scheduled to depart Sriganganagar from 2/1/15-17/2/15 #1267262 3. MST holders permitted to travel in IInd class general coaches between Bhatinda-Rohtak-Delhi
Sun Nov 23, 2014 (08:03PM)
⇐ Return Journey: Train# 13007

13008/Udyan Abha Toofan Express

Nov 25 departure has been DIVERTED between NDLS/New Delhi and TDL/Tundla Junction
Time-Table HAS CHANGED.
Nov 23 (8:03PM)
Change Departure Station:
Change Arrival Station:
Post a Train Travel TipPost a Train Travel Tip **new
Post a Comment/Question/Picture/VideoPost a Comment/Question/Picture/Video
Inaugural Run
Wed Jan 01, 1930
Pantry/Catering
✕ NO Pantry Car
✕ NO Catering
Loco/Rake Reversals
AGC/Agra Cantt. (6);
RSA - Rake Sharing
Rake/Coach Composition
LOCO-HCPV-HCPV-SLR-GEN-GEN-S1-S2-S3-S4-S5-B1-GEN-GEN-SLR.;;Entry# 252065 Author: mohantoursandtravels ;;Loco Reversal at Agra Cannt(AGC)
Loco
SGNR-NDLS: TKD WDM-3A NDLS-HWH: HWH WAP-4
News    PNR    Forum    Time-Table    Availability    Fare Chart    Map    Arr/Dep History    Trips    Gallery    ΣChains    X/O    Timeline    
Travel Time: 20h 18m    41 halts    Distance: 835 km    Avg Speed: 41 km/hr
Type: Mail/Express
Zone: ER/Eastern
Departs @ 21:00
Platform# 3
SMTWTFS
Shri Ganganagar/SGNR 
Arrives @ 17:18 +1 night
Platform# ???
SMTWTFS
Rura/RURA 

41 halts. 130 intermediate Stations between Shri Ganganagar and Rura

Show ALL intermediate Stations  Show Old Time-Table

#TrkCodeStation NameX/OArrivesAvgDepartsAvgHaltPFDay#KmSpeedElevZoneAddress
1|--|SGNRShri Ganganagar»  -21:00-310.078178mNWRSri Ganganagar, Rajasthan
2|--|ABSAbohar  21:41-21:43-2m--153.068186mNRAbohar, Punjab
3|--|MOTMalout (1)  22:09-22:11-2m1182.661194mNRMalaut, Punjab
4|--|GDBGiddarbaha  22:27-22:29-2m--198.741200mNRGiddarbaha, Punjab
5|--|BTIBathinda Junction (6)  23:10-00:05-55m51126.679208mNRBathinda, Punjab
6!==!MAURMaur  00:32-00:34-2m--2162.170220mNRMaur Mandi, Punjab
7!==!MSZMansa  00:50-00:52-2m--2180.854222mNRMansa, Punjab
8!==!BLZBudhlada  01:10-01:12-2m--2196.949223mNRBudhlada, Punjab
9!==!JHLJakhal Junction  01:50 01:48-01:55 01:53-5m--2226.573225mNRJakhal, Haryana
10|==|TUNTohana (2)  02:06 02:03-02:08 02:05-2m--2238.773232mNRTohana, Haryana
11|==|NRWNarwana Junction (4)  02:28 02:26-02:30 02:28-2m--2264.270235mNRKKDE, Haryana
12|==|UCAUchanaX  02:43 02:41-02:45 02:43-2m--2279.466225mNRDistrict Jind, Haryana
13|==|JINDJind Junction (3)  03:05 03:00-03:10 03:05-5m--2298.173222mNRJind 126102, Haryana
14|==|JNAJulana  03:31 03:26-03:33 03:28-2m--2323.870226mNRJulana, Haryana
15|==|ROKRohtak Junction (3)  04:03 03:55-04:07 04:00-4 5m--2355.284220mNRRohtak, Haryana
16/==/SPZSampla  04:24 04:16-04:26 04:18-2m--2377.572222mNRSampla, Haryana
17/==/BGZBahadurgarh  04:46 04:33-04:48 04:35-2m--2395.558220mNRBahadurgarh, Haryana
18/==/NNONangloi  05:06 04:48-05:08 04:50-2m22407.912219mNRJJ Colony No 1, Delhi NCT
19/==/SSBShakur Basti  05:38 05:28-05:40 05:30-2m--2415.426216mNRPitampura, Delhi NCT
20/==/DKZDelhi KishanGanj (2)  05:56 05:46-05:58 05:48-2m--2422.47220mNRSarai Rohilla, Delhi NCT
21/==/NDLSNew Delhi (16)X  06:30 06:20-07:00-30 40m52426.227215mNRNew Delhi 110002, Delhi NCT
22/==/TKDTuglakabad (2)XO  07:45 07:38-07:47 07:40-2m12443.329213mNRNear Tughlakabad Metro Station, Delhi NCT
23/==/FDBFaridabad (4)X  08:13 08:03-08:15 08:05-2m32454.444206mNRold Faridabad, Haryana
24/==/BVHBallabgarh (5)  08:28 08:16-08:30 08:18-2m22462.535203mNRFaridabad, Haryana
25/==/PWLPalwal (8)X  08:54-08:56-2m--2483.785200mNRPalwal, Haryana
26/==/KSVKosi Kalan (3)X  09:26-09:28-2m22526.156189mNCRKosi Kalan, Uttar Pradesh
27/==/CHJChata (4)XO  09:39-09:41-2m--2536.429 NCRChhata, Uttar Pradesh
28/==/MTJMathura Junction (10)XO  10:45-10:50-5m12567.653179mNCRMathura, Uttar Pradesh
29/==/RKMRaja Ki Mandi (4)  11:46-11:48-2m22617.211170mNCRAgra, Uttar Pradesh
30/==/AGCAgra Cantt. (6)12:10-12:40 12:30-30 20m42621.37174mNCRAgra, Uttar Pradesh
31/==/IDHIdgah Agra Junction (3)  12:48-12:50-2m--2623.511168mNCRAgra, Uttar Pradesh
32/==/AFAgra Fort (3)X  13:02-13:07-5m12625.626170mNCRRakabganj, Uttar Pradesh
33/==/TDLTundla Junction (5)  13:55 14:00-14:05 14:10-10m--2648.555167mNCRDistt.Firozabad, Uttar Pradesh
34/==/FZDFirozabad (4)X  14:24 14:28-14:26 14:30-2m22665.160164mNCRFirozabad, Uttar Pradesh
35/==/SKBShikohabad Junction (4)X  14:45 14:50-14:47 14:52-2m22685.0150166mNCRDistrict Firozabad, Uttar Pradesh
36/==/BDNBhadan (2)X  15:00-15:02-2m--2704.978160mNCRFirozabad, Uttar Pradesh
37/==/JGRJaswantnagar (2)X  15:17-15:19-2m--2724.437154mNCRJaswantnagar, Uttar Pradesh
38/==/ETWEtawah (5)  15:38 15:45-15:40 15:47-2m32740.379154mNCRDistt. Etawah, Uttar Pradesh
39/==/BNTBharthana (3)  15:54 16:02-15:56 16:04-2m--2760.269147mNCRBharthana, Uttar Pradesh
40/==/ULDAchalda (3)X  16:13 16:21-16:15 16:23-2m--2779.867147mNCRDist. Auraiya(05688-1072), Uttar Pradesh
41/==/PHDPhaphund (4)  16:27 16:38-16:29 16:40-2m--2796.559146mNCRdist. Auraiya, Uttar Pradesh
42/==/JJKJhinjhak (3)  16:43 17:00-16:45 17:02-2m22816.371140mNCRAuraiya, Uttar Pradesh
43/==/RURARura (4)•XO  17:00 17:18-17:02 17:20-2m--2835.498137mNCRJhinjhak, Uttar Pradesh
44/==/PNKPanki (3)XO  17:40-17:42-2m--2868.242129mNCRKANPUR-208 020, Uttar Pradesh
45/==/GOYGovindpuri Junction (2)  17:53-17:55-2m22875.86129mNCRKANPUR-208 006, Uttar Pradesh
46/==/CNBKanpur Central (10)  18:25 18:30-18:40 18:45-15m--2879.673128mNCRKANPUR-208 001, Uttar Pradesh
47/==/BKOBindki Road  19:28 19:23-19:30 19:25-2m--2925.967124mNCRFatehpur, Uttar Pradesh
48/==/FTPFatehpur (3)X  19:58 19:53-20:00 19:55-2m--2957.290120mNCRFatehpur, Uttar Pradesh
49/==/KGAKhaga (3)  20:23 20:18-20:25 20:20-2m--2991.971114mNCRFatehpur, Uttar Pradesh
50/==/SROSirathu (2)  20:44 20:41-20:46 20:43-2m121016.767109mNCRSirathu, Uttar Pradesh
51/==/BREBharwariO  21:03 21:01-21:05 21:03-2m--21036.936108mNCRBharwari, Uttar Pradesh
52/==/ALDAllahabad Junction (10)XO  22:05-22:15-10m621073.990100mNCRAllahabad 211003, Uttar Pradesh
53/==/BDLVindhyachal (3)XO  23:11 23:10-23:13 23:12-2m--21156.22788mNCRMirzapur, Uttar Pradesh
54/==/MZPMirzapur (3)  23:33 23:28-23:35 23:30-2m221163.57888mNCRMirzapur, Uttar Pradesh
55/==/CARChunar Junction (5)  00:01 23:54-00:02 23:56-1 2m321194.82885mNCRChunar Junction, Uttar Pradesh
56/==/MGSMughal Sarai Junction (8)X  01:05-01:20 01:15-15 10m131226.76583mECRDistt: Chandauli Pin 232101, Uttar Pradesh
57/==/ZNAZamania (2)X  01:56-01:58-2m--31270.96777mECRGhazipur, Uttar Pradesh
58/==/DLNDildarnagar Junction (2)  02:10-02:12-2m--31284.48072mECRDildarnagar, Uttar Pradesh
59/==/BXRBuxar (3)X  02:39-02:44-5m--31320.66167mECRBuxar, Bihar
60/==/DUREDumraon (3)X  03:00-03:02-2m--31336.98070mECRDumraon, Bihar
61/==/RPRRaghunathpur (4)  03:14-03:16-2m--31352.96669mECRRaghunathpur, Bihar
62/==/BYNBanahi (2)  03:24-03:26-2m--31361.75167mECRBanahi, Bihar
63/==/BEABihiya (3)X  03:33-03:35-2m--31367.77167mECRBehea, Bihar
64/==/ARAAra Junction (3)X  03:53-03:57-4m--31389.17463mECRDistt: Bhojpur Ph 06182-233411, Bihar
65/==/KUAKulharia (2)  04:05-04:07-2m--31399.03161mECRChandi Sahar Rd, Bihar
66/==/KWRKoelwar (2)O  04:14-04:16-2m--31402.55865mECRNational Highway 30, Bihar
67/==/BTABihta (2)  04:25-04:27-2m--31411.34262mECRDistt: Patna, Bihar
68/==/SDESadisopur (2)  04:33-04:35-2m--31415.56164mECRSadisopur, Bihar
69/==/NEONeora (2)XO  04:42-04:44-2m--31422.6561mECRNational Highway 98, Bihar
70/==/DNRDanapur (5)X  06:00-06:10-10m--31428.63858mECRKhagaul, Bihar
71/==/PNBEPatna Junction (10)  06:25-06:35-10m131438.04157mECRPatna 800001, Bihar
72/==/GZHGulzarbagh (3)X  06:45-06:47-2m--31444.82655mECRPatna, Bihar
73/==/PNCPatna Saheb (3)  06:54-06:56-2m--31447.96159mECRPatna 800008, Bihar
74/==/FUTFatwa (6)  07:08-07:10-2m--31460.14653mECRPatna, Bihar
75/==/KOOKhusropur (2)  07:21-07:23-2m--31468.66452mECRPatna, Bihar
76/==/BKPBakhtiyarpur Junction (5)X  07:37-07:39-2m--31483.413551mECRPatna, Bihar
77/==/ATLAthmal Gola (2)  07:43-07:45-2m--31492.41852mECRPatna, Bihar
78/==/BARHBarh (3)  08:16-08:18-2m--31501.56849mECRBarh, Bihar
79/==/PHKPunarakh (2)X  08:27-08:29-2m--31511.76151mECRPunarakh, Bihar
80/==/MORMor (2)X  08:37-08:39-2m--31519.94446mECRMor, Bihar
81/==/MKAMokama Junction (4)  08:49-08:53-4m--31527.27248mECRPatna, Bihar
82/==/HTZHathidah Junction (2)  09:00-09:02-2m131535.66350mECRMusahari, Bihar
83/==/BRYABarhiya (3)  09:11-09:13-2m--31545.05147mECRBarahiya, Bihar
84/==/DMRXDumri Halt (1)  09:18-09:20-2m131549.34549mECRNational Highway 80, Bihar
85/==/MKBMankathaX  09:27-09:29-2m--31554.53047mECRNational Highway 80, Bihar
86/==/LKRLuckeesarai Junction (2)X  09:40-09:42-2m--31560.1852mECRLakhisarai, Bihar
87/==/KIULKiul Junction (5)X  09:52-09:56-4m--31561.43853mECRDist. Lakhisarai, Bihar
88/==/BSQPBansipur (2)  10:03-10:05-2m--31565.82553mECRKiul, Bihar
89/==/MNPMananpur (2)  10:11-10:13-2m--31568.48257mECRState Highway 18, Bihar
90/==/JMUJamui (2)O  10:28-10:30-2m--31588.73081mECRState Highway 72, Bihar
91/==/GHRGidhaur (2)  10:59-11:01-2m--31603.313106mECRState Highway 18, Bihar
92/==/JAJJhajha (4)  11:52-11:57-5m--31614.775143mECRJhajha, Bihar
93/==/STLSimultala (2)X  12:12-12:14-2m--31633.469247mERSimultala, Bihar
94/==/JSMEJasidih Junction (5)X  12:36-12:41-5m--31658.870271mERJasidih, Jharkhand
95/==/MDPMadhupur Junction (4)X  13:06-13:10-4m331687.981254mER06432-224478, Jharkhand
96/==/VDSVidyasagar (2)  13:28-13:30-2m--31712.167250mERJamtara, Jharkhand
97/==/JMTJamtara (2)X  13:46-13:48-2m231730.054201mERJamtara, Jharkhand
98/==/CRJChittaranjan (3)X  14:04-14:06-2m231744.358182mERMihijam, Jharkhand
99/==/STNSitarampur Junction (5)X  14:23-14:25-2m--31760.618139mERG T Rd Before Asansol, West Bengal
100/==/ASNAsansol Junction (7)X  14:55-15:10-15m--31769.472113mERDist - Bardhaman, West Bengal
101/==/RNGRaniGanj (4)X  15:25-15:27-2m--31787.53692mERRaniganj, West Bengal
102/==/UDLAndal Junction (6)X  15:39-15:41-2m--31794.87386mERAndal, West Bengal
103/==/DGRDurgapur (5)X  15:55-15:57-2m--31811.89471mERDurgapur, West Bengal
104/==/PANPanagarh (4)X  16:07-16:09-2m--31827.45570mERKaksa, West Bengal
105/==/BWNBarddhaman Junction (8)X  17:01-17:06-5m--31875.35134mERDist - Barddhaman, West Bengal
106/==/BDCBandel Junction (7)X  18:20 18:25-18:25 18:30-5m--31942.63914mERdist - HOOGHLY, West Bengal
107/==/HWHKolkata Howrah Junction (23)  19:20 19:30--731982.1-10mERHowrah 711101, West Bengal
Scroll to Top
Scroll to Bottom